Disclaimer

Please do not use the information listed here in-flight or in-navigation, as they are not provided to us by the airports but are provided by volunteers, so they might be outdated.

Search


Regions


Airport information page

Radio informations:
PALEGRE TWR - 118.1 MHz
Ground (GND) - 121.9 MHz
Automatic Terminal Information Service (ATIS) - 127.85 MHz
PALEGRE APP - 119.0 MHz

Airport informations:
Latitude: 29° 59' 39.94" S
Longitude: 051° 10' 17.14" W
Elevation: 11 feet - 3 meters
Operating hours: 24 hour operations
Operating agency: Civil government, landing fees and diplomatic clearance may be required
Timezone: UTC-3(-2DT)
Fuel: Jet A1, without icing nhibitor.

100/130 octane gasoline, leaded, MIL-L-5572F (GREEN)

Runway information:
11/29 - 7481 x 140 feet< - >2280 x 43 meters

Recent METARs:
SBPA 202000Z 11012KT CAVOK 26/15 Q1015
SBPA 202000Z 11012KT CAVOK 26/15 Q1015
SBPA 202100Z 10013KT CAVOK 24/15 Q1016

Airport on the map: